CheckWX is a tool to help pilots better visualize weather data.  It is not intended as a substitute for an official pre-flight weather briefing.

15:16:48 UTC

KRHV METAR
Reid-Hillview of Santa Clara County Airport
San Jose, California, USA
Current

1 hour ago

KRHV 201347Z 00000KT 10SM FEW010 BKN035 09/08 A2995
Observed
May-20 @ 13:47 UTC
Visibility
10 SM
Flight Rules
VFR
Cloud Levels
  • Few at 1,000' AGL
  • Broken at 3,500' AGL
Temperature
C / 48°F
Dewpoint
C / 46°F
Humidity
94%
Altimeter
29.95" Hg
Pressure
1014.22 hPa
Previous

10 hours ago

KRHV 200450Z 00000KT 10SM BKN050 12/10 A2989 RMK LAST
Observed
May-20 @ 04:50 UTC
Visibility
10 SM
Flight Rules
VFR
Cloud Levels
  • Broken at 5,000' AGL
Temperature
12°C / 54°F
Dewpoint
10°C / 50°F
Humidity
88%
Altimeter
29.89" Hg
Pressure
1012.22 hPa
Previous

11 hours ago

KRHV 200350Z 00000KT 7SM -RA BKN050 12/09 A2989
Observed
May-20 @ 03:50 UTC
Visibility
7 SM
Flight Rules
VFR
Conditions
Light Rain
Cloud Levels
  • Broken at 5,000' AGL
Temperature
12°C / 54°F
Dewpoint
C / 48°F
Humidity
82%
Altimeter
29.89" Hg
Pressure
1012.22 hPa